sensor_id;sensor_type;location;lat;lon;timestamp;temperature;humidity
23715;DHT22;12036;50.858;4.472;2023-01-25T00:01:58;2.60;99.90
23715;DHT22;12036;50.858;4.472;2023-01-25T00:04:24;2.60;99.90
23715;DHT22;12036;50.858;4.472;2023-01-25T00:06:50;2.60;99.90
23715;DHT22;12036;50.858;4.472;2023-01-25T00:09:16;2.60;99.90
23715;DHT22;12036;50.858;4.472;2023-01-25T00:11:43;2.60;99.90
23715;DHT22;12036;50.858;4.472;2023-01-25T00:14:10;2.60;99.90
23715;DHT22;12036;50.858;4.472;2023-01-25T00:16:36;2.70;99.90
23715;DHT22;12036;50.858;4.472;2023-01-25T00:19:02;2.70;99.90
23715;DHT22;12036;50.858;4.472;2023-01-25T00:21:28;2.70;99.90
23715;DHT22;12036;50.858;4.472;2023-01-25T00:23:53;2.70;99.90
23715;DHT22;12036;50.858;4.472;2023-01-25T00:26:19;2.70;99.90
23715;DHT22;12036;50.858;4.472;2023-01-25T00:28:49;2.60;99.90
23715;DHT22;12036;50.858;4.472;2023-01-25T00:35:04;2.50;99.90
23715;DHT22;12036;50.858;4.472;2023-01-25T00:39:59;2.60;99.90
23715;DHT22;12036;50.858;4.472;2023-01-25T00:42:24;2.50;99.90
23715;DHT22;12036;50.858;4.472;2023-01-25T00:44:50;2.60;99.90
23715;DHT22;12036;50.858;4.472;2023-01-25T00:47:16;2.60;99.90
23715;DHT22;12036;50.858;4.472;2023-01-25T00:49:43;2.60;99.90
23715;DHT22;12036;50.858;4.472;2023-01-25T00:52:10;2.60;99.90
23715;DHT22;12036;50.858;4.472;2023-01-25T00:54:36;2.60;99.90
23715;DHT22;12036;50.858;4.472;2023-01-25T00:57:02;2.50;99.90
23715;DHT22;12036;50.858;4.472;2023-01-25T00:59:28;2.50;99.90
23715;DHT22;12036;50.858;4.472;2023-01-25T01:01:55;2.60;99.90
23715;DHT22;12036;50.858;4.472;2023-01-25T01:04:21;2.60;99.90
23715;DHT22;12036;50.858;4.472;2023-01-25T01:06:53;2.60;99.90
23715;DHT22;12036;50.858;4.472;2023-01-25T01:09:19;2.50;99.90
23715;DHT22;12036;50.858;4.472;2023-01-25T01:11:45;2.60;99.90
23715;DHT22;12036;50.858;4.472;2023-01-25T01:14:12;2.50;99.90
23715;DHT22;12036;50.858;4.472;2023-01-25T01:16:38;2.50;99.90
23715;DHT22;12036;50.858;4.472;2023-01-25T01:19:04;2.70;99.90
23715;DHT22;12036;50.858;4.472;2023-01-25T01:21:30;2.80;99.90
23715;DHT22;12036;50.858;4.472;2023-01-25T01:23:56;2.60;99.90
23715;DHT22;12036;50.858;4.472;2023-01-25T01:26:22;2.40;99.90
23715;DHT22;12036;50.858;4.472;2023-01-25T01:28:48;2.30;99.90
23715;DHT22;12036;50.858;4.472;2023-01-25T01:31:23;2.40;99.90
23715;DHT22;12036;50.858;4.472;2023-01-25T01:33:54;2.30;99.90
23715;DHT22;12036;50.858;4.472;2023-01-25T01:36:21;2.30;99.90
23715;DHT22;12036;50.858;4.472;2023-01-25T01:38:47;2.20;99.90
23715;DHT22;12036;50.858;4.472;2023-01-25T01:41:14;2.20;99.90
23715;DHT22;12036;50.858;4.472;2023-01-25T01:43:40;2.30;99.90
23715;DHT22;12036;50.858;4.472;2023-01-25T01:46:26;2.40;99.90
23715;DHT22;12036;50.858;4.472;2023-01-25T01:49:00;2.40;99.90
23715;DHT22;12036;50.858;4.472;2023-01-25T01:51:56;2.30;99.90
23715;DHT22;12036;50.858;4.472;2023-01-25T01:54:48;2.20;99.90
23715;DHT22;12036;50.858;4.472;2023-01-25T01:57:26;2.20;99.90
23715;DHT22;12036;50.858;4.472;2023-01-25T02:00:01;2.20;99.90
23715;DHT22;12036;50.858;4.472;2023-01-25T02:02:27;2.20;99.90
23715;DHT22;12036;50.858;4.472;2023-01-25T02:04:56;2.20;99.90
23715;DHT22;12036;50.858;4.472;2023-01-25T02:07:35;2.20;99.90
23715;DHT22;12036;50.858;4.472;2023-01-25T02:10:07;2.10;99.90
23715;DHT22;12036;50.858;4.472;2023-01-25T02:12:34;2.20;99.90
23715;DHT22;12036;50.858;4.472;2023-01-25T02:15:00;2.20;99.90
23715;DHT22;12036;50.858;4.472;2023-01-25T02:17:34;2.20;99.90
23715;DHT22;12036;50.858;4.472;2023-01-25T02:25:35;2.20;99.90
23715;DHT22;12036;50.858;4.472;2023-01-25T02:28:20;2.10;99.90
23715;DHT22;12036;50.858;4.472;2023-01-25T02:30:47;2.10;99.90
23715;DHT22;12036;50.858;4.472;2023-01-25T02:33:13;2.10;99.90
23715;DHT22;12036;50.858;4.472;2023-01-25T02:35:47;2.10;99.90
23715;DHT22;12036;50.858;4.472;2023-01-25T02:38:17;2.10;99.90
23715;DHT22;12036;50.858;4.472;2023-01-25T02:41:46;2.00;99.90
23715;DHT22;12036;50.858;4.472;2023-01-25T02:43:47;2.10;99.90
23715;DHT22;12036;50.858;4.472;2023-01-25T02:46:22;2.10;99.90
23715;DHT22;12036;50.858;4.472;2023-01-25T02:48:50;2.10;99.90
23715;DHT22;12036;50.858;4.472;2023-01-25T02:51:16;2.00;99.90
23715;DHT22;12036;50.858;4.472;2023-01-25T02:53:41;2.00;99.90
23715;DHT22;12036;50.858;4.472;2023-01-25T02:56:07;2.10;99.90
23715;DHT22;12036;50.858;4.472;2023-01-25T02:58:32;2.00;99.90
23715;DHT22;12036;50.858;4.472;2023-01-25T03:00:58;2.10;99.90
23715;DHT22;12036;50.858;4.472;2023-01-25T03:03:24;2.10;99.90
23715;DHT22;12036;50.858;4.472;2023-01-25T03:05:50;2.00;99.90
23715;DHT22;12036;50.858;4.472;2023-01-25T03:08:16;2.00;99.90
23715;DHT22;12036;50.858;4.472;2023-01-25T03:10:41;2.10;99.90
23715;DHT22;12036;50.858;4.472;2023-01-25T03:13:07;2.10;99.90
23715;DHT22;12036;50.858;4.472;2023-01-25T03:15:33;2.10;99.90
23715;DHT22;12036;50.858;4.472;2023-01-25T03:17:58;2.10;99.90
23715;DHT22;12036;50.858;4.472;2023-01-25T03:20:24;2.10;99.90
23715;DHT22;12036;50.858;4.472;2023-01-25T03:22:50;2.10;99.90
23715;DHT22;12036;50.858;4.472;2023-01-25T03:25:15;2.10;99.90
23715;DHT22;12036;50.858;4.472;2023-01-25T03:27:41;2.10;99.90
23715;DHT22;12036;50.858;4.472;2023-01-25T03:30:08;2.10;99.90
23715;DHT22;12036;50.858;4.472;2023-01-25T03:32:34;2.10;99.90
23715;DHT22;12036;50.858;4.472;2023-01-25T03:35:00;2.10;99.90
23715;DHT22;12036;50.858;4.472;2023-01-25T03:37:25;2.10;99.90
23715;DHT22;12036;50.858;4.472;2023-01-25T03:39:55;2.10;99.90
23715;DHT22;12036;50.858;4.472;2023-01-25T03:42:21;2.00;99.90
23715;DHT22;12036;50.858;4.472;2023-01-25T03:44:46;2.00;99.90
23715;DHT22;12036;50.858;4.472;2023-01-25T03:47:12;2.00;99.90
23715;DHT22;12036;50.858;4.472;2023-01-25T03:49:38;2.00;99.90
23715;DHT22;12036;50.858;4.472;2023-01-25T03:52:04;2.10;99.90
23715;DHT22;12036;50.858;4.472;2023-01-25T03:54:29;2.10;99.90
23715;DHT22;12036;50.858;4.472;2023-01-25T03:56:55;2.10;99.90
23715;DHT22;12036;50.858;4.472;2023-01-25T03:59:21;2.10;99.90
23715;DHT22;12036;50.858;4.472;2023-01-25T04:01:47;2.10;99.90
23715;DHT22;12036;50.858;4.472;2023-01-25T04:04:13;2.10;99.90
23715;DHT22;12036;50.858;4.472;2023-01-25T04:06:39;2.10;99.90
23715;DHT22;12036;50.858;4.472;2023-01-25T04:09:05;2.10;99.90
23715;DHT22;12036;50.858;4.472;2023-01-25T04:11:31;2.10;99.90
23715;DHT22;12036;50.858;4.472;2023-01-25T04:13:56;2.00;99.90
23715;DHT22;12036;50.858;4.472;2023-01-25T04:16:22;2.10;99.90
23715;DHT22;12036;50.858;4.472;2023-01-25T04:18:48;2.00;99.90
23715;DHT22;12036;50.858;4.472;2023-01-25T04:21:13;2.00;99.90
23715;DHT22;12036;50.858;4.472;2023-01-25T04:23:39;2.00;99.90
23715;DHT22;12036;50.858;4.472;2023-01-25T04:26:07;2.10;99.90
23715;DHT22;12036;50.858;4.472;2023-01-25T04:28:34;2.10;99.90
23715;DHT22;12036;50.858;4.472;2023-01-25T04:31:01;2.10;99.90
23715;DHT22;12036;50.858;4.472;2023-01-25T04:33:28;2.10;99.90
23715;DHT22;12036;50.858;4.472;2023-01-25T04:35:54;2.10;99.90
23715;DHT22;12036;50.858;4.472;2023-01-25T04:38:20;2.10;99.90
23715;DHT22;12036;50.858;4.472;2023-01-25T04:40:46;2.10;99.90
23715;DHT22;12036;50.858;4.472;2023-01-25T04:43:13;2.00;99.90
23715;DHT22;12036;50.858;4.472;2023-01-25T04:45:39;2.00;99.90
23715;DHT22;12036;50.858;4.472;2023-01-25T04:48:07;2.00;99.90
23715;DHT22;12036;50.858;4.472;2023-01-25T04:50:40;1.80;99.90
23715;DHT22;12036;50.858;4.472;2023-01-25T04:53:07;1.70;99.90
23715;DHT22;12036;50.858;4.472;2023-01-25T04:55:33;1.70;99.90
23715;DHT22;12036;50.858;4.472;2023-01-25T04:57:59;1.70;99.90
23715;DHT22;12036;50.858;4.472;2023-01-25T05:00:24;1.80;99.90
23715;DHT22;12036;50.858;4.472;2023-01-25T05:02:50;1.80;99.90
23715;DHT22;12036;50.858;4.472;2023-01-25T05:05:16;1.80;99.90
23715;DHT22;12036;50.858;4.472;2023-01-25T05:07:42;1.80;99.90
23715;DHT22;12036;50.858;4.472;2023-01-25T05:10:08;1.80;99.90
23715;DHT22;12036;50.858;4.472;2023-01-25T05:12:34;1.80;99.90
23715;DHT22;12036;50.858;4.472;2023-01-25T05:15:00;1.80;99.90
23715;DHT22;12036;50.858;4.472;2023-01-25T05:17:25;1.80;99.90
23715;DHT22;12036;50.858;4.472;2023-01-25T05:19:51;1.80;99.90
23715;DHT22;12036;50.858;4.472;2023-01-25T05:22:18;1.90;99.90
23715;DHT22;12036;50.858;4.472;2023-01-25T05:24:46;1.90;99.90
23715;DHT22;12036;50.858;4.472;2023-01-25T05:27:14;2.00;99.90
23715;DHT22;12036;50.858;4.472;2023-01-25T05:29:41;1.90;99.90
23715;DHT22;12036;50.858;4.472;2023-01-25T05:32:16;1.90;99.90
23715;DHT22;12036;50.858;4.472;2023-01-25T05:34:42;1.90;99.90
23715;DHT22;12036;50.858;4.472;2023-01-25T05:37:10;1.90;99.90
23715;DHT22;12036;50.858;4.472;2023-01-25T05:39:36;1.90;99.90
23715;DHT22;12036;50.858;4.472;2023-01-25T05:42:02;1.80;99.90
23715;DHT22;12036;50.858;4.472;2023-01-25T05:44:28;1.80;99.90
23715;DHT22;12036;50.858;4.472;2023-01-25T05:46:54;1.80;99.90
23715;DHT22;12036;50.858;4.472;2023-01-25T05:49:19;1.80;99.90
23715;DHT22;12036;50.858;4.472;2023-01-25T05:51:45;1.80;99.90
23715;DHT22;12036;50.858;4.472;2023-01-25T05:54:14;1.80;99.90
23715;DHT22;12036;50.858;4.472;2023-01-25T05:56:41;1.80;99.90
23715;DHT22;12036;50.858;4.472;2023-01-25T05:59:06;1.80;99.90
23715;DHT22;12036;50.858;4.472;2023-01-25T06:01:32;1.60;99.90
23715;DHT22;12036;50.858;4.472;2023-01-25T06:03:58;1.40;99.90
23715;DHT22;12036;50.858;4.472;2023-01-25T06:06:24;1.30;99.90
23715;DHT22;12036;50.858;4.472;2023-01-25T06:08:49;1.40;99.90
23715;DHT22;12036;50.858;4.472;2023-01-25T06:11:18;1.40;99.90
23715;DHT22;12036;50.858;4.472;2023-01-25T06:13:44;1.40;99.90
23715;DHT22;12036;50.858;4.472;2023-01-25T06:16:10;1.50;99.90
23715;DHT22;12036;50.858;4.472;2023-01-25T06:18:37;1.60;99.90
23715;DHT22;12036;50.858;4.472;2023-01-25T06:21:05;1.60;99.90
23715;DHT22;12036;50.858;4.472;2023-01-25T06:23:31;1.40;99.90
23715;DHT22;12036;50.858;4.472;2023-01-25T06:25:58;1.40;99.90
23715;DHT22;12036;50.858;4.472;2023-01-25T06:28:25;1.50;99.90
23715;DHT22;12036;50.858;4.472;2023-01-25T06:30:50;1.50;99.90
23715;DHT22;12036;50.858;4.472;2023-01-25T06:33:16;1.50;99.90
23715;DHT22;12036;50.858;4.472;2023-01-25T06:35:42;1.60;99.90
23715;DHT22;12036;50.858;4.472;2023-01-25T06:38:08;1.60;99.90
23715;DHT22;12036;50.858;4.472;2023-01-25T06:40:34;1.50;99.90
23715;DHT22;12036;50.858;4.472;2023-01-25T06:43:07;1.60;99.90
23715;DHT22;12036;50.858;4.472;2023-01-25T06:45:33;1.50;99.90
23715;DHT22;12036;50.858;4.472;2023-01-25T06:47:59;1.50;99.90
23715;DHT22;12036;50.858;4.472;2023-01-25T06:50:25;1.50;99.90
23715;DHT22;12036;50.858;4.472;2023-01-25T06:52:52;1.50;99.90
23715;DHT22;12036;50.858;4.472;2023-01-25T06:55:18;1.50;99.90
23715;DHT22;12036;50.858;4.472;2023-01-25T06:57:44;1.50;99.90
23715;DHT22;12036;50.858;4.472;2023-01-25T07:00:10;1.60;99.90
23715;DHT22;12036;50.858;4.472;2023-01-25T07:02:36;1.60;99.90
23715;DHT22;12036;50.858;4.472;2023-01-25T07:05:01;1.50;99.90
23715;DHT22;12036;50.858;4.472;2023-01-25T07:07:27;1.60;99.90
23715;DHT22;12036;50.858;4.472;2023-01-25T07:09:53;1.50;99.90
23715;DHT22;12036;50.858;4.472;2023-01-25T07:12:18;1.50;99.90
23715;DHT22;12036;50.858;4.472;2023-01-25T07:14:44;1.50;99.90
23715;DHT22;12036;50.858;4.472;2023-01-25T07:17:12;1.40;99.90
23715;DHT22;12036;50.858;4.472;2023-01-25T07:19:38;1.50;99.90
23715;DHT22;12036;50.858;4.472;2023-01-25T07:22:04;1.50;99.90
23715;DHT22;12036;50.858;4.472;2023-01-25T07:24:29;1.50;99.90
23715;DHT22;12036;50.858;4.472;2023-01-25T07:26:55;1.50;99.90
23715;DHT22;12036;50.858;4.472;2023-01-25T07:29:21;1.50;99.90
23715;DHT22;12036;50.858;4.472;2023-01-25T07:31:47;1.50;99.90
23715;DHT22;12036;50.858;4.472;2023-01-25T07:34:12;1.50;99.90
23715;DHT22;12036;50.858;4.472;2023-01-25T07:36:39;1.50;99.90
23715;DHT22;12036;50.858;4.472;2023-01-25T07:39:05;1.50;99.90
23715;DHT22;12036;50.858;4.472;2023-01-25T07:41:34;1.50;99.90
23715;DHT22;12036;50.858;4.472;2023-01-25T07:44:00;1.50;99.90
23715;DHT22;12036;50.858;4.472;2023-01-25T07:46:26;1.50;99.90
23715;DHT22;12036;50.858;4.472;2023-01-25T07:48:52;1.60;99.90
23715;DHT22;12036;50.858;4.472;2023-01-25T07:51:20;1.60;99.90
23715;DHT22;12036;50.858;4.472;2023-01-25T07:54:00;1.60;99.90
23715;DHT22;12036;50.858;4.472;2023-01-25T07:56:28;1.50;99.90
23715;DHT22;12036;50.858;4.472;2023-01-25T07:58:55;1.50;99.90
23715;DHT22;12036;50.858;4.472;2023-01-25T08:01:23;1.40;99.90
23715;DHT22;12036;50.858;4.472;2023-01-25T08:03:50;1.30;99.90
23715;DHT22;12036;50.858;4.472;2023-01-25T08:06:16;1.20;99.90
23715;DHT22;12036;50.858;4.472;2023-01-25T08:08:45;1.30;99.90
23715;DHT22;12036;50.858;4.472;2023-01-25T08:11:23;1.30;99.90
23715;DHT22;12036;50.858;4.472;2023-01-25T08:13:48;1.30;99.90
23715;DHT22;12036;50.858;4.472;2023-01-25T08:16:17;1.30;99.90
23715;DHT22;12036;50.858;4.472;2023-01-25T08:18:49;1.40;99.90
23715;DHT22;12036;50.858;4.472;2023-01-25T08:21:15;1.50;99.90
23715;DHT22;12036;50.858;4.472;2023-01-25T08:23:41;1.50;99.90
23715;DHT22;12036;50.858;4.472;2023-01-25T08:26:09;1.50;99.90
23715;DHT22;12036;50.858;4.472;2023-01-25T08:28:35;1.50;99.90
23715;DHT22;12036;50.858;4.472;2023-01-25T08:31:18;1.60;99.90
23715;DHT22;12036;50.858;4.472;2023-01-25T08:33:45;1.60;99.90
23715;DHT22;12036;50.858;4.472;2023-01-25T08:36:12;1.60;99.90
23715;DHT22;12036;50.858;4.472;2023-01-25T08:38:38;1.70;99.90
23715;DHT22;12036;50.858;4.472;2023-01-25T08:41:10;1.60;99.90
23715;DHT22;12036;50.858;4.472;2023-01-25T08:43:36;1.60;99.90
23715;DHT22;12036;50.858;4.472;2023-01-25T08:46:02;1.50;99.90
23715;DHT22;12036;50.858;4.472;2023-01-25T08:48:28;1.50;99.90
23715;DHT22;12036;50.858;4.472;2023-01-25T08:50:53;1.50;99.90
23715;DHT22;12036;50.858;4.472;2023-01-25T08:53:19;1.50;99.90
23715;DHT22;12036;50.858;4.472;2023-01-25T08:55:45;1.50;99.90
23715;DHT22;12036;50.858;4.472;2023-01-25T08:58:15;1.60;99.90
23715;DHT22;12036;50.858;4.472;2023-01-25T09:00:42;1.70;99.90
23715;DHT22;12036;50.858;4.472;2023-01-25T09:03:09;1.70;99.90
23715;DHT22;12036;50.858;4.472;2023-01-25T09:05:37;1.70;99.90
23715;DHT22;12036;50.858;4.472;2023-01-25T09:08:05;1.70;99.90
23715;DHT22;12036;50.858;4.472;2023-01-25T09:10:31;1.70;99.90
23715;DHT22;12036;50.858;4.472;2023-01-25T09:12:57;1.70;99.90
23715;DHT22;12036;50.858;4.472;2023-01-25T09:15:23;1.70;99.90
23715;DHT22;12036;50.858;4.472;2023-01-25T09:17:54;1.90;99.90
23715;DHT22;12036;50.858;4.472;2023-01-25T09:20:20;1.80;99.90
23715;DHT22;12036;50.858;4.472;2023-01-25T09:22:46;1.90;99.90
23715;DHT22;12036;50.858;4.472;2023-01-25T09:25:12;1.90;99.90
23715;DHT22;12036;50.858;4.472;2023-01-25T09:27:39;1.90;99.90
23715;DHT22;12036;50.858;4.472;2023-01-25T09:30:06;1.90;99.90
23715;DHT22;12036;50.858;4.472;2023-01-25T09:32:32;1.90;99.90
23715;DHT22;12036;50.858;4.472;2023-01-25T09:34:58;1.80;99.90
23715;DHT22;12036;50.858;4.472;2023-01-25T09:37:23;1.70;99.90
23715;DHT22;12036;50.858;4.472;2023-01-25T09:39:49;1.80;99.90
23715;DHT22;12036;50.858;4.472;2023-01-25T09:43:08;2.00;99.90
23715;DHT22;12036;50.858;4.472;2023-01-25T09:45:36;1.90;99.90
23715;DHT22;12036;50.858;4.472;2023-01-25T09:51:20;1.80;99.90
23715;DHT22;12036;50.858;4.472;2023-01-25T09:53:52;1.90;99.90
23715;DHT22;12036;50.858;4.472;2023-01-25T09:56:26;1.90;99.90
23715;DHT22;12036;50.858;4.472;2023-01-25T09:59:16;1.80;99.90
23715;DHT22;12036;50.858;4.472;2023-01-25T10:04:29;1.40;99.90
23715;DHT22;12036;50.858;4.472;2023-01-25T10:07:18;1.40;99.90
23715;DHT22;12036;50.858;4.472;2023-01-25T10:12:18;1.40;99.90
23715;DHT22;12036;50.858;4.472;2023-01-25T10:14:45;1.40;99.90
23715;DHT22;12036;50.858;4.472;2023-01-25T10:20:47;1.40;99.90
23715;DHT22;12036;50.858;4.472;2023-01-25T10:25:44;1.60;99.90
23715;DHT22;12036;50.858;4.472;2023-01-25T10:28:39;1.60;99.90
23715;DHT22;12036;50.858;4.472;2023-01-25T10:31:15;1.50;99.90
23715;DHT22;12036;50.858;4.472;2023-01-25T10:33:43;1.70;99.90
23715;DHT22;12036;50.858;4.472;2023-01-25T10:36:19;1.80;99.90
23715;DHT22;12036;50.858;4.472;2023-01-25T10:38:47;2.00;99.90
23715;DHT22;12036;50.858;4.472;2023-01-25T10:41:29;2.00;99.90
23715;DHT22;12036;50.858;4.472;2023-01-25T10:43:57;2.10;99.90
23715;DHT22;12036;50.858;4.472;2023-01-25T10:46:45;2.20;99.90
23715;DHT22;12036;50.858;4.472;2023-01-25T10:54:44;2.20;99.90
23715;DHT22;12036;50.858;4.472;2023-01-25T10:57:20;2.20;99.90
23715;DHT22;12036;50.858;4.472;2023-01-25T10:59:49;2.20;99.90
23715;DHT22;12036;50.858;4.472;2023-01-25T11:02:45;2.30;99.90
23715;DHT22;12036;50.858;4.472;2023-01-25T11:07:43;2.40;99.90
23715;DHT22;12036;50.858;4.472;2023-01-25T11:18:33;2.40;99.90
23715;DHT22;12036;50.858;4.472;2023-01-25T11:21:17;2.50;99.90
23715;DHT22;12036;50.858;4.472;2023-01-25T11:26:27;2.60;99.90
23715;DHT22;12036;50.858;4.472;2023-01-25T11:31:37;2.60;99.90
23715;DHT22;12036;50.858;4.472;2023-01-25T11:34:11;2.70;99.90
23715;DHT22;12036;50.858;4.472;2023-01-25T11:47:54;2.50;99.90
23715;DHT22;12036;50.858;4.472;2023-01-25T11:50:32;2.50;99.90
23715;DHT22;12036;50.858;4.472;2023-01-25T11:56:24;2.50;99.90
23715;DHT22;12036;50.858;4.472;2023-01-25T11:59:03;2.50;99.90
23715;DHT22;12036;50.858;4.472;2023-01-25T12:01:50;2.60;99.90
23715;DHT22;12036;50.858;4.472;2023-01-25T12:07:38;2.60;99.90
23715;DHT22;12036;50.858;4.472;2023-01-25T12:09:56;2.60;99.90
23715;DHT22;12036;50.858;4.472;2023-01-25T12:21:23;2.70;99.90
23715;DHT22;12036;50.858;4.472;2023-01-25T12:33:16;2.80;99.90
23715;DHT22;12036;50.858;4.472;2023-01-25T12:35:54;2.80;99.90
23715;DHT22;12036;50.858;4.472;2023-01-25T12:38:31;2.80;99.90
23715;DHT22;12036;50.858;4.472;2023-01-25T12:43:37;2.80;99.90
23715;DHT22;12036;50.858;4.472;2023-01-25T12:46:39;2.90;99.90
23715;DHT22;12036;50.858;4.472;2023-01-25T12:49:14;2.90;99.90
23715;DHT22;12036;50.858;4.472;2023-01-25T12:51:43;2.90;99.90
23715;DHT22;12036;50.858;4.472;2023-01-25T12:54:21;2.80;99.90
23715;DHT22;12036;50.858;4.472;2023-01-25T12:57:12;2.80;99.90
23715;DHT22;12036;50.858;4.472;2023-01-25T13:13:45;3.00;99.90
23715;DHT22;12036;50.858;4.472;2023-01-25T13:18:57;3.00;99.90
23715;DHT22;12036;50.858;4.472;2023-01-25T13:24:14;3.10;99.90
23715;DHT22;12036;50.858;4.472;2023-01-25T13:27:02;3.10;99.90
23715;DHT22;12036;50.858;4.472;2023-01-25T13:32:13;3.10;99.90
23715;DHT22;12036;50.858;4.472;2023-01-25T13:34:58;3.10;99.90
23715;DHT22;12036;50.858;4.472;2023-01-25T13:37:28;3.20;99.90
23715;DHT22;12036;50.858;4.472;2023-01-25T13:42:31;3.10;99.90
23715;DHT22;12036;50.858;4.472;2023-01-25T13:45:13;3.10;99.90
23715;DHT22;12036;50.858;4.472;2023-01-25T13:47:41;3.20;99.90
23715;DHT22;12036;50.858;4.472;2023-01-25T13:50:25;3.20;99.90
23715;DHT22;12036;50.858;4.472;2023-01-25T13:53:16;3.20;99.90
23715;DHT22;12036;50.858;4.472;2023-01-25T13:55:48;3.20;99.90
23715;DHT22;12036;50.858;4.472;2023-01-25T13:58:21;3.30;99.90
23715;DHT22;12036;50.858;4.472;2023-01-25T14:01:02;3.30;99.90
23715;DHT22;12036;50.858;4.472;2023-01-25T14:03:34;3.40;99.90
23715;DHT22;12036;50.858;4.472;2023-01-25T14:06:01;3.40;99.90
23715;DHT22;12036;50.858;4.472;2023-01-25T14:08:29;3.40;99.90
23715;DHT22;12036;50.858;4.472;2023-01-25T14:10:56;3.40;99.90
23715;DHT22;12036;50.858;4.472;2023-01-25T14:13:22;3.40;99.90
23715;DHT22;12036;50.858;4.472;2023-01-25T14:15:55;3.40;99.90
23715;DHT22;12036;50.858;4.472;2023-01-25T14:18:29;3.40;99.90
23715;DHT22;12036;50.858;4.472;2023-01-25T14:21:10;3.30;99.90
23715;DHT22;12036;50.858;4.472;2023-01-25T14:23:36;3.30;99.90
23715;DHT22;12036;50.858;4.472;2023-01-25T14:26:10;3.30;99.90
23715;DHT22;12036;50.858;4.472;2023-01-25T14:28:43;3.10;99.90
23715;DHT22;12036;50.858;4.472;2023-01-25T14:31:23;3.00;99.90
23715;DHT22;12036;50.858;4.472;2023-01-25T14:33:50;3.00;99.90
23715;DHT22;12036;50.858;4.472;2023-01-25T14:36:22;3.10;99.90
23715;DHT22;12036;50.858;4.472;2023-01-25T14:38:48;3.20;99.90
23715;DHT22;12036;50.858;4.472;2023-01-25T14:43:56;3.10;99.90
23715;DHT22;12036;50.858;4.472;2023-01-25T14:46:32;3.10;99.90
23715;DHT22;12036;50.858;4.472;2023-01-25T14:57:06;3.10;99.90
23715;DHT22;12036;50.858;4.472;2023-01-25T14:59:38;3.00;99.90
23715;DHT22;12036;50.858;4.472;2023-01-25T15:07:52;2.80;99.90
23715;DHT22;12036;50.858;4.472;2023-01-25T15:13:18;2.70;99.90
23715;DHT22;12036;50.858;4.472;2023-01-25T15:15:58;2.70;99.90
23715;DHT22;12036;50.858;4.472;2023-01-25T15:18:46;2.70;99.90
23715;DHT22;12036;50.858;4.472;2023-01-25T15:21:33;2.70;99.90
23715;DHT22;12036;50.858;4.472;2023-01-25T15:24:01;2.70;99.90
23715;DHT22;12036;50.858;4.472;2023-01-25T15:26:32;2.70;99.90
23715;DHT22;12036;50.858;4.472;2023-01-25T15:29:21;2.60;99.90
23715;DHT22;12036;50.858;4.472;2023-01-25T15:31:46;2.50;99.90
23715;DHT22;12036;50.858;4.472;2023-01-25T15:34:23;2.40;99.90
23715;DHT22;12036;50.858;4.472;2023-01-25T15:36:50;2.40;99.90
23715;DHT22;12036;50.858;4.472;2023-01-25T15:39:19;2.30;99.90
23715;DHT22;12036;50.858;4.472;2023-01-25T15:41:46;2.30;99.90
23715;DHT22;12036;50.858;4.472;2023-01-25T15:44:12;2.20;99.90
23715;DHT22;12036;50.858;4.472;2023-01-25T15:46:44;2.20;99.90
23715;DHT22;12036;50.858;4.472;2023-01-25T15:49:20;2.10;99.90
23715;DHT22;12036;50.858;4.472;2023-01-25T15:51:47;2.10;99.90
23715;DHT22;12036;50.858;4.472;2023-01-25T15:54:13;2.00;99.90
23715;DHT22;12036;50.858;4.472;2023-01-25T15:56:40;1.90;99.90
23715;DHT22;12036;50.858;4.472;2023-01-25T15:59:15;2.00;99.90
23715;DHT22;12036;50.858;4.472;2023-01-25T16:01:41;2.00;99.90
23715;DHT22;12036;50.858;4.472;2023-01-25T16:04:09;1.90;99.90
23715;DHT22;12036;50.858;4.472;2023-01-25T16:06:49;1.90;99.90
23715;DHT22;12036;50.858;4.472;2023-01-25T16:09:18;1.80;99.90
23715;DHT22;12036;50.858;4.472;2023-01-25T16:11:46;1.70;99.90
23715;DHT22;12036;50.858;4.472;2023-01-25T16:14:12;1.70;99.90
23715;DHT22;12036;50.858;4.472;2023-01-25T16:16:48;1.70;99.90
23715;DHT22;12036;50.858;4.472;2023-01-25T16:19:19;1.70;99.90
23715;DHT22;12036;50.858;4.472;2023-01-25T16:21:46;1.70;99.90
23715;DHT22;12036;50.858;4.472;2023-01-25T16:24:12;1.60;99.90
23715;DHT22;12036;50.858;4.472;2023-01-25T16:26:44;1.60;99.90
23715;DHT22;12036;50.858;4.472;2023-01-25T16:29:10;1.60;99.90
23715;DHT22;12036;50.858;4.472;2023-01-25T16:31:36;1.50;99.90
23715;DHT22;12036;50.858;4.472;2023-01-25T16:34:01;1.40;99.90
23715;DHT22;12036;50.858;4.472;2023-01-25T16:36:28;1.40;99.90
23715;DHT22;12036;50.858;4.472;2023-01-25T16:38:54;1.30;99.90
23715;DHT22;12036;50.858;4.472;2023-01-25T16:41:20;1.30;99.90
23715;DHT22;12036;50.858;4.472;2023-01-25T16:43:47;1.30;99.90
23715;DHT22;12036;50.858;4.472;2023-01-25T16:46:21;1.40;99.90
23715;DHT22;12036;50.858;4.472;2023-01-25T16:48:49;1.30;99.90
23715;DHT22;12036;50.858;4.472;2023-01-25T16:51:16;1.30;99.90
23715;DHT22;12036;50.858;4.472;2023-01-25T16:53:43;1.20;99.90
23715;DHT22;12036;50.858;4.472;2023-01-25T16:56:21;1.10;99.90
23715;DHT22;12036;50.858;4.472;2023-01-25T16:58:48;1.00;99.90
23715;DHT22;12036;50.858;4.472;2023-01-25T17:01:15;1.00;99.90
23715;DHT22;12036;50.858;4.472;2023-01-25T17:03:41;0.90;99.90
23715;DHT22;12036;50.858;4.472;2023-01-25T17:06:24;0.90;99.90
23715;DHT22;12036;50.858;4.472;2023-01-25T17:08:50;0.80;99.90
23715;DHT22;12036;50.858;4.472;2023-01-25T17:11:17;0.80;99.90
23715;DHT22;12036;50.858;4.472;2023-01-25T17:13:49;0.90;99.90
23715;DHT22;12036;50.858;4.472;2023-01-25T17:16:17;0.80;99.90
23715;DHT22;12036;50.858;4.472;2023-01-25T17:18:42;0.70;99.90
23715;DHT22;12036;50.858;4.472;2023-01-25T17:21:10;0.80;99.90
23715;DHT22;12036;50.858;4.472;2023-01-25T17:23:36;0.70;99.90
23715;DHT22;12036;50.858;4.472;2023-01-25T17:26:03;0.80;99.90
23715;DHT22;12036;50.858;4.472;2023-01-25T17:28:29;0.80;99.90
23715;DHT22;12036;50.858;4.472;2023-01-25T17:30:55;0.80;99.90
23715;DHT22;12036;50.858;4.472;2023-01-25T17:33:21;0.70;99.90
23715;DHT22;12036;50.858;4.472;2023-01-25T17:35:47;0.70;99.90
23715;DHT22;12036;50.858;4.472;2023-01-25T17:38:12;0.60;99.90
23715;DHT22;12036;50.858;4.472;2023-01-25T17:40:38;0.60;99.90
23715;DHT22;12036;50.858;4.472;2023-01-25T17:43:04;0.60;99.90
23715;DHT22;12036;50.858;4.472;2023-01-25T17:45:30;0.60;99.90
23715;DHT22;12036;50.858;4.472;2023-01-25T17:48:03;0.70;99.90
23715;DHT22;12036;50.858;4.472;2023-01-25T17:50:29;0.70;99.90
23715;DHT22;12036;50.858;4.472;2023-01-25T17:52:54;0.70;99.90
23715;DHT22;12036;50.858;4.472;2023-01-25T17:55:20;0.70;99.90
23715;DHT22;12036;50.858;4.472;2023-01-25T17:57:46;0.70;99.90
23715;DHT22;12036;50.858;4.472;2023-01-25T18:00:12;0.80;99.90
23715;DHT22;12036;50.858;4.472;2023-01-25T18:02:42;0.80;99.90
23715;DHT22;12036;50.858;4.472;2023-01-25T18:05:09;0.70;99.90
23715;DHT22;12036;50.858;4.472;2023-01-25T18:07:35;0.80;99.90
23715;DHT22;12036;50.858;4.472;2023-01-25T18:10:01;0.80;99.90